sensor_id;sensor_type;location;lat;lon;timestamp;P1;durP1;ratioP1;P2;durP2;ratioP2
51800;SDS011;37855;53.204;6.568;2023-05-08T00:01:36;11.32;;;8.70;;
51800;SDS011;37855;53.204;6.568;2023-05-08T00:04:02;13.13;;;8.67;;
51800;SDS011;37855;53.204;6.568;2023-05-08T00:06:28;12.32;;;9.15;;
51800;SDS011;37855;53.204;6.568;2023-05-08T00:08:55;12.30;;;8.82;;
51800;SDS011;37855;53.204;6.568;2023-05-08T00:11:21;12.57;;;8.87;;
51800;SDS011;37855;53.204;6.568;2023-05-08T00:13:46;15.88;;;9.05;;
51800;SDS011;37855;53.204;6.568;2023-05-08T00:16:16;12.65;;;9.13;;
51800;SDS011;37855;53.204;6.568;2023-05-08T00:18:42;12.63;;;8.95;;
51800;SDS011;37855;53.204;6.568;2023-05-08T00:21:07;15.10;;;9.30;;
51800;SDS011;37855;53.204;6.568;2023-05-08T00:23:33;11.83;;;8.97;;
51800;SDS011;37855;53.204;6.568;2023-05-08T00:25:59;13.90;;;9.55;;
51800;SDS011;37855;53.204;6.568;2023-05-08T00:28:25;12.68;;;9.13;;
51800;SDS011;37855;53.204;6.568;2023-05-08T00:30:50;13.00;;;9.60;;
51800;SDS011;37855;53.204;6.568;2023-05-08T00:33:16;13.75;;;10.18;;
51800;SDS011;37855;53.204;6.568;2023-05-08T00:35:42;12.43;;;9.47;;
51800;SDS011;37855;53.204;6.568;2023-05-08T00:38:08;13.43;;;9.40;;
51800;SDS011;37855;53.204;6.568;2023-05-08T00:40:35;13.35;;;10.13;;
51800;SDS011;37855;53.204;6.568;2023-05-08T00:43:01;13.53;;;10.27;;
51800;SDS011;37855;53.204;6.568;2023-05-08T00:45:45;13.13;;;9.93;;
51800;SDS011;37855;53.204;6.568;2023-05-08T00:48:10;14.82;;;10.30;;
51800;SDS011;37855;53.204;6.568;2023-05-08T00:50:36;12.53;;;9.33;;
51800;SDS011;37855;53.204;6.568;2023-05-08T00:53:02;13.13;;;9.95;;
51800;SDS011;37855;53.204;6.568;2023-05-08T00:55:29;13.85;;;10.45;;
51800;SDS011;37855;53.204;6.568;2023-05-08T00:57:56;14.82;;;10.07;;
51800;SDS011;37855;53.204;6.568;2023-05-08T01:00:22;14.33;;;10.03;;
51800;SDS011;37855;53.204;6.568;2023-05-08T01:02:48;14.05;;;10.55;;
51800;SDS011;37855;53.204;6.568;2023-05-08T01:05:14;14.30;;;10.43;;
51800;SDS011;37855;53.204;6.568;2023-05-08T01:07:40;13.57;;;10.00;;
51800;SDS011;37855;53.204;6.568;2023-05-08T01:10:06;13.23;;;10.38;;
51800;SDS011;37855;53.204;6.568;2023-05-08T01:15:26;13.57;;;10.15;;
51800;SDS011;37855;53.204;6.568;2023-05-08T01:28:33;14.48;;;10.32;;
51800;SDS011;37855;53.204;6.568;2023-05-08T01:34:02;14.20;;;10.70;;
51800;SDS011;37855;53.204;6.568;2023-05-08T01:36:40;14.70;;;10.45;;
51800;SDS011;37855;53.204;6.568;2023-05-08T01:44:54;15.27;;;11.35;;
51800;SDS011;37855;53.204;6.568;2023-05-08T01:47:25;17.08;;;11.65;;
51800;SDS011;37855;53.204;6.568;2023-05-08T01:49:57;16.42;;;11.73;;
51800;SDS011;37855;53.204;6.568;2023-05-08T01:52:36;15.97;;;11.63;;
51800;SDS011;37855;53.204;6.568;2023-05-08T01:55:23;15.30;;;10.57;;
51800;SDS011;37855;53.204;6.568;2023-05-08T01:57:53;14.48;;;10.55;;
51800;SDS011;37855;53.204;6.568;2023-05-08T02:00:22;14.48;;;10.32;;
51800;SDS011;37855;53.204;6.568;2023-05-08T02:02:49;14.13;;;10.35;;
51800;SDS011;37855;53.204;6.568;2023-05-08T02:05:16;14.90;;;10.30;;
51800;SDS011;37855;53.204;6.568;2023-05-08T02:07:45;12.82;;;9.98;;
51800;SDS011;37855;53.204;6.568;2023-05-08T02:10:13;15.18;;;10.02;;
51800;SDS011;37855;53.204;6.568;2023-05-08T02:12:40;14.85;;;10.80;;
51800;SDS011;37855;53.204;6.568;2023-05-08T02:15:07;15.38;;;11.10;;
51800;SDS011;37855;53.204;6.568;2023-05-08T02:17:37;14.87;;;9.70;;
51800;SDS011;37855;53.204;6.568;2023-05-08T02:20:07;13.75;;;9.52;;
51800;SDS011;37855;53.204;6.568;2023-05-08T02:22:42;13.65;;;10.35;;
51800;SDS011;37855;53.204;6.568;2023-05-08T02:25:09;16.40;;;10.73;;
51800;SDS011;37855;53.204;6.568;2023-05-08T02:27:38;14.13;;;10.48;;
51800;SDS011;37855;53.204;6.568;2023-05-08T02:30:10;14.47;;;10.03;;
51800;SDS011;37855;53.204;6.568;2023-05-08T02:32:38;16.02;;;10.20;;
51800;SDS011;37855;53.204;6.568;2023-05-08T02:35:07;16.52;;;10.63;;
51800;SDS011;37855;53.204;6.568;2023-05-08T02:37:39;16.27;;;10.95;;
51800;SDS011;37855;53.204;6.568;2023-05-08T02:40:09;16.60;;;10.48;;
51800;SDS011;37855;53.204;6.568;2023-05-08T02:42:36;13.53;;;10.23;;
51800;SDS011;37855;53.204;6.568;2023-05-08T02:45:03;16.88;;;11.05;;
51800;SDS011;37855;53.204;6.568;2023-05-08T02:47:33;14.80;;;11.13;;
51800;SDS011;37855;53.204;6.568;2023-05-08T02:50:21;15.00;;;10.15;;
51800;SDS011;37855;53.204;6.568;2023-05-08T02:52:52;15.75;;;10.38;;
51800;SDS011;37855;53.204;6.568;2023-05-08T02:56:00;14.80;;;10.33;;
51800;SDS011;37855;53.204;6.568;2023-05-08T03:00:57;15.00;;;10.70;;
51800;SDS011;37855;53.204;6.568;2023-05-08T03:06:05;16.00;;;11.35;;
51800;SDS011;37855;53.204;6.568;2023-05-08T03:08:36;16.63;;;10.87;;
51800;SDS011;37855;53.204;6.568;2023-05-08T03:11:10;15.75;;;11.10;;
51800;SDS011;37855;53.204;6.568;2023-05-08T03:13:41;15.30;;;11.30;;
51800;SDS011;37855;53.204;6.568;2023-05-08T03:16:19;16.08;;;10.48;;
51800;SDS011;37855;53.204;6.568;2023-05-08T03:18:50;16.40;;;10.93;;
51800;SDS011;37855;53.204;6.568;2023-05-08T03:21:19;17.00;;;10.97;;
51800;SDS011;37855;53.204;6.568;2023-05-08T03:23:47;14.77;;;10.55;;
51800;SDS011;37855;53.204;6.568;2023-05-08T03:26:15;19.52;;;11.48;;
51800;SDS011;37855;53.204;6.568;2023-05-08T03:28:48;14.77;;;10.77;;
51800;SDS011;37855;53.204;6.568;2023-05-08T03:31:18;17.52;;;11.23;;
51800;SDS011;37855;53.204;6.568;2023-05-08T03:33:49;17.00;;;11.83;;
51800;SDS011;37855;53.204;6.568;2023-05-08T03:36:17;17.58;;;11.82;;
51800;SDS011;37855;53.204;6.568;2023-05-08T03:38:44;17.95;;;12.27;;
51800;SDS011;37855;53.204;6.568;2023-05-08T03:41:11;16.17;;;11.77;;
51800;SDS011;37855;53.204;6.568;2023-05-08T03:43:37;15.77;;;11.07;;
51800;SDS011;37855;53.204;6.568;2023-05-08T03:46:04;14.97;;;11.03;;
51800;SDS011;37855;53.204;6.568;2023-05-08T03:48:32;15.82;;;11.23;;
51800;SDS011;37855;53.204;6.568;2023-05-08T03:51:00;16.98;;;11.25;;
51800;SDS011;37855;53.204;6.568;2023-05-08T03:53:30;17.17;;;11.10;;
51800;SDS011;37855;53.204;6.568;2023-05-08T03:55:57;16.17;;;11.60;;
51800;SDS011;37855;53.204;6.568;2023-05-08T03:58:36;16.07;;;10.97;;
51800;SDS011;37855;53.204;6.568;2023-05-08T04:01:07;16.45;;;10.82;;
51800;SDS011;37855;53.204;6.568;2023-05-08T04:06:24;17.38;;;11.40;;
51800;SDS011;37855;53.204;6.568;2023-05-08T04:11:32;17.20;;;12.60;;
51800;SDS011;37855;53.204;6.568;2023-05-08T04:14:20;20.60;;;13.50;;
51800;SDS011;37855;53.204;6.568;2023-05-08T04:16:50;18.42;;;12.60;;
51800;SDS011;37855;53.204;6.568;2023-05-08T04:19:22;17.80;;;13.15;;
51800;SDS011;37855;53.204;6.568;2023-05-08T04:21:52;17.20;;;12.38;;
51800;SDS011;37855;53.204;6.568;2023-05-08T04:24:21;17.80;;;12.60;;
51800;SDS011;37855;53.204;6.568;2023-05-08T04:26:51;17.15;;;12.80;;
51800;SDS011;37855;53.204;6.568;2023-05-08T04:29:18;16.13;;;11.93;;
51800;SDS011;37855;53.204;6.568;2023-05-08T04:31:44;19.58;;;12.48;;
51800;SDS011;37855;53.204;6.568;2023-05-08T04:34:10;16.38;;;11.98;;
51800;SDS011;37855;53.204;6.568;2023-05-08T04:36:37;19.67;;;12.90;;
51800;SDS011;37855;53.204;6.568;2023-05-08T04:39:05;17.85;;;11.70;;
51800;SDS011;37855;53.204;6.568;2023-05-08T04:41:31;17.30;;;12.15;;
51800;SDS011;37855;53.204;6.568;2023-05-08T04:43:57;16.27;;;12.07;;
51800;SDS011;37855;53.204;6.568;2023-05-08T04:46:22;15.73;;;11.63;;
51800;SDS011;37855;53.204;6.568;2023-05-08T04:48:49;15.67;;;11.43;;
51800;SDS011;37855;53.204;6.568;2023-05-08T04:51:15;14.48;;;10.90;;
51800;SDS011;37855;53.204;6.568;2023-05-08T04:53:40;15.55;;;10.40;;
51800;SDS011;37855;53.204;6.568;2023-05-08T04:56:06;14.87;;;10.27;;
51800;SDS011;37855;53.204;6.568;2023-05-08T04:58:32;13.07;;;9.40;;
51800;SDS011;37855;53.204;6.568;2023-05-08T05:01:00;15.17;;;9.97;;
51800;SDS011;37855;53.204;6.568;2023-05-08T05:03:27;15.50;;;10.45;;
51800;SDS011;37855;53.204;6.568;2023-05-08T05:05:56;17.48;;;10.45;;
51800;SDS011;37855;53.204;6.568;2023-05-08T05:08:24;14.90;;;10.00;;
51800;SDS011;37855;53.204;6.568;2023-05-08T05:10:50;13.18;;;9.50;;
51800;SDS011;37855;53.204;6.568;2023-05-08T05:13:18;13.35;;;9.10;;
51800;SDS011;37855;53.204;6.568;2023-05-08T05:15:44;14.27;;;9.07;;
51800;SDS011;37855;53.204;6.568;2023-05-08T05:18:13;13.60;;;8.80;;
51800;SDS011;37855;53.204;6.568;2023-05-08T05:20:38;17.35;;;9.77;;
51800;SDS011;37855;53.204;6.568;2023-05-08T05:23:05;13.30;;;9.02;;
51800;SDS011;37855;53.204;6.568;2023-05-08T05:25:31;12.80;;;9.83;;
51800;SDS011;37855;53.204;6.568;2023-05-08T05:27:59;13.43;;;9.35;;
51800;SDS011;37855;53.204;6.568;2023-05-08T05:30:26;14.30;;;9.73;;
51800;SDS011;37855;53.204;6.568;2023-05-08T05:32:52;13.40;;;9.10;;
51800;SDS011;37855;53.204;6.568;2023-05-08T05:35:17;15.18;;;9.55;;
51800;SDS011;37855;53.204;6.568;2023-05-08T05:37:43;14.30;;;9.27;;
51800;SDS011;37855;53.204;6.568;2023-05-08T05:40:09;14.53;;;9.73;;
51800;SDS011;37855;53.204;6.568;2023-05-08T05:42:37;12.98;;;8.93;;
51800;SDS011;37855;53.204;6.568;2023-05-08T05:45:03;11.80;;;8.87;;
51800;SDS011;37855;53.204;6.568;2023-05-08T05:47:29;13.23;;;8.68;;
51800;SDS011;37855;53.204;6.568;2023-05-08T05:49:56;11.82;;;9.15;;
51800;SDS011;37855;53.204;6.568;2023-05-08T05:52:22;14.77;;;8.98;;
51800;SDS011;37855;53.204;6.568;2023-05-08T05:54:47;16.20;;;9.20;;
51800;SDS011;37855;53.204;6.568;2023-05-08T05:57:13;11.90;;;8.93;;
51800;SDS011;37855;53.204;6.568;2023-05-08T05:59:39;12.27;;;9.30;;
51800;SDS011;37855;53.204;6.568;2023-05-08T06:02:06;14.93;;;10.70;;
51800;SDS011;37855;53.204;6.568;2023-05-08T06:04:38;12.95;;;9.40;;
51800;SDS011;37855;53.204;6.568;2023-05-08T06:07:04;12.63;;;9.30;;
51800;SDS011;37855;53.204;6.568;2023-05-08T06:09:29;19.63;;;9.85;;
51800;SDS011;37855;53.204;6.568;2023-05-08T06:11:55;15.33;;;9.13;;
51800;SDS011;37855;53.204;6.568;2023-05-08T06:14:21;13.68;;;8.77;;
51800;SDS011;37855;53.204;6.568;2023-05-08T06:16:46;12.37;;;8.83;;
51800;SDS011;37855;53.204;6.568;2023-05-08T06:19:12;15.98;;;8.98;;
51800;SDS011;37855;53.204;6.568;2023-05-08T06:21:37;12.67;;;8.57;;
51800;SDS011;37855;53.204;6.568;2023-05-08T06:24:04;12.15;;;8.20;;
51800;SDS011;37855;53.204;6.568;2023-05-08T06:26:30;11.82;;;8.80;;
51800;SDS011;37855;53.204;6.568;2023-05-08T06:28:56;13.27;;;9.10;;
51800;SDS011;37855;53.204;6.568;2023-05-08T06:31:22;12.23;;;9.10;;
51800;SDS011;37855;53.204;6.568;2023-05-08T06:33:47;16.88;;;9.40;;
51800;SDS011;37855;53.204;6.568;2023-05-08T06:36:13;14.00;;;8.47;;
51800;SDS011;37855;53.204;6.568;2023-05-08T06:38:38;12.45;;;9.10;;
51800;SDS011;37855;53.204;6.568;2023-05-08T06:41:04;12.90;;;8.80;;
51800;SDS011;37855;53.204;6.568;2023-05-08T06:43:30;14.23;;;9.15;;
51800;SDS011;37855;53.204;6.568;2023-05-08T06:45:56;13.90;;;8.73;;
51800;SDS011;37855;53.204;6.568;2023-05-08T06:48:21;12.23;;;8.77;;
51800;SDS011;37855;53.204;6.568;2023-05-08T06:50:49;13.17;;;9.50;;
51800;SDS011;37855;53.204;6.568;2023-05-08T06:53:15;13.33;;;9.17;;
51800;SDS011;37855;53.204;6.568;2023-05-08T06:55:42;13.15;;;8.85;;
51800;SDS011;37855;53.204;6.568;2023-05-08T06:58:07;14.38;;;8.75;;
51800;SDS011;37855;53.204;6.568;2023-05-08T07:00:33;12.97;;;8.83;;
51800;SDS011;37855;53.204;6.568;2023-05-08T07:02:59;17.70;;;9.33;;
51800;SDS011;37855;53.204;6.568;2023-05-08T07:05:24;15.27;;;9.90;;
51800;SDS011;37855;53.204;6.568;2023-05-08T07:07:50;21.23;;;9.63;;
51800;SDS011;37855;53.204;6.568;2023-05-08T07:10:18;13.88;;;9.27;;
51800;SDS011;37855;53.204;6.568;2023-05-08T07:12:46;17.45;;;9.38;;
51800;SDS011;37855;53.204;6.568;2023-05-08T07:15:13;17.90;;;9.35;;
51800;SDS011;37855;53.204;6.568;2023-05-08T07:17:38;13.27;;;8.93;;
51800;SDS011;37855;53.204;6.568;2023-05-08T07:20:05;14.13;;;9.15;;
51800;SDS011;37855;53.204;6.568;2023-05-08T07:22:35;15.00;;;10.82;;
51800;SDS011;37855;53.204;6.568;2023-05-08T07:25:00;13.03;;;8.77;;
51800;SDS011;37855;53.204;6.568;2023-05-08T07:27:26;15.37;;;9.63;;
51800;SDS011;37855;53.204;6.568;2023-05-08T07:29:52;13.90;;;9.57;;
51800;SDS011;37855;53.204;6.568;2023-05-08T07:32:18;12.45;;;9.60;;
51800;SDS011;37855;53.204;6.568;2023-05-08T07:34:43;12.37;;;8.90;;
51800;SDS011;37855;53.204;6.568;2023-05-08T07:37:09;14.00;;;9.68;;
51800;SDS011;37855;53.204;6.568;2023-05-08T07:39:36;13.13;;;9.80;;
51800;SDS011;37855;53.204;6.568;2023-05-08T07:42:02;13.00;;;9.43;;
51800;SDS011;37855;53.204;6.568;2023-05-08T07:44:30;11.98;;;9.07;;
51800;SDS011;37855;53.204;6.568;2023-05-08T07:46:57;12.15;;;9.60;;
51800;SDS011;37855;53.204;6.568;2023-05-08T07:49:26;12.90;;;9.40;;
51800;SDS011;37855;53.204;6.568;2023-05-08T07:51:52;13.38;;;9.85;;
51800;SDS011;37855;53.204;6.568;2023-05-08T07:54:17;14.80;;;10.45;;
51800;SDS011;37855;53.204;6.568;2023-05-08T07:56:43;13.67;;;9.80;;
51800;SDS011;37855;53.204;6.568;2023-05-08T07:59:09;13.07;;;9.38;;
51800;SDS011;37855;53.204;6.568;2023-05-08T08:01:34;12.90;;;10.00;;
51800;SDS011;37855;53.204;6.568;2023-05-08T08:04:00;13.38;;;9.60;;
51800;SDS011;37855;53.204;6.568;2023-05-08T08:06:26;13.27;;;9.60;;
51800;SDS011;37855;53.204;6.568;2023-05-08T08:08:51;16.90;;;10.00;;
51800;SDS011;37855;53.204;6.568;2023-05-08T08:11:17;14.02;;;9.65;;
51800;SDS011;37855;53.204;6.568;2023-05-08T08:13:43;15.23;;;10.82;;
51800;SDS011;37855;53.204;6.568;2023-05-08T08:16:09;15.63;;;10.60;;
51800;SDS011;37855;53.204;6.568;2023-05-08T08:18:34;15.77;;;11.07;;
51800;SDS011;37855;53.204;6.568;2023-05-08T08:21:03;16.40;;;9.90;;
51800;SDS011;37855;53.204;6.568;2023-05-08T08:23:30;13.90;;;9.65;;
51800;SDS011;37855;53.204;6.568;2023-05-08T08:25:56;14.75;;;10.48;;
51800;SDS011;37855;53.204;6.568;2023-05-08T08:28:22;14.03;;;9.63;;
51800;SDS011;37855;53.204;6.568;2023-05-08T08:30:48;12.43;;;9.48;;
51800;SDS011;37855;53.204;6.568;2023-05-08T08:33:13;14.23;;;9.70;;
51800;SDS011;37855;53.204;6.568;2023-05-08T08:35:39;13.98;;;10.15;;
51800;SDS011;37855;53.204;6.568;2023-05-08T08:38:05;17.87;;;10.23;;
51800;SDS011;37855;53.204;6.568;2023-05-08T08:40:30;13.98;;;10.50;;
51800;SDS011;37855;53.204;6.568;2023-05-08T08:42:56;12.50;;;9.80;;
51800;SDS011;37855;53.204;6.568;2023-05-08T08:45:23;12.18;;;9.45;;
51800;SDS011;37855;53.204;6.568;2023-05-08T08:47:48;15.45;;;10.57;;
51800;SDS011;37855;53.204;6.568;2023-05-08T08:50:16;14.43;;;10.30;;
51800;SDS011;37855;53.204;6.568;2023-05-08T08:55:24;14.05;;;9.57;;
51800;SDS011;37855;53.204;6.568;2023-05-08T08:58:00;13.73;;;9.98;;
51800;SDS011;37855;53.204;6.568;2023-05-08T09:00:49;14.30;;;9.90;;
51800;SDS011;37855;53.204;6.568;2023-05-08T09:03:15;13.90;;;10.10;;
51800;SDS011;37855;53.204;6.568;2023-05-08T09:05:44;16.05;;;10.65;;
51800;SDS011;37855;53.204;6.568;2023-05-08T09:08:13;17.35;;;9.85;;
51800;SDS011;37855;53.204;6.568;2023-05-08T09:10:39;21.52;;;10.35;;
51800;SDS011;37855;53.204;6.568;2023-05-08T09:13:05;16.10;;;9.90;;
51800;SDS011;37855;53.204;6.568;2023-05-08T09:15:31;16.23;;;10.05;;
51800;SDS011;37855;53.204;6.568;2023-05-08T09:17:59;13.15;;;10.45;;
51800;SDS011;37855;53.204;6.568;2023-05-08T09:20:26;13.65;;;10.52;;
51800;SDS011;37855;53.204;6.568;2023-05-08T09:22:53;13.80;;;10.60;;
51800;SDS011;37855;53.204;6.568;2023-05-08T09:25:18;14.50;;;10.70;;
51800;SDS011;37855;53.204;6.568;2023-05-08T09:27:44;18.40;;;10.52;;
51800;SDS011;37855;53.204;6.568;2023-05-08T09:30:11;25.97;;;11.80;;
51800;SDS011;37855;53.204;6.568;2023-05-08T09:32:41;19.17;;;11.57;;
51800;SDS011;37855;53.204;6.568;2023-05-08T09:35:08;17.25;;;10.43;;
51800;SDS011;37855;53.204;6.568;2023-05-08T09:37:39;14.73;;;10.57;;
51800;SDS011;37855;53.204;6.568;2023-05-08T09:42:45;16.87;;;10.90;;
51800;SDS011;37855;53.204;6.568;2023-05-08T09:45:24;18.35;;;11.50;;
51800;SDS011;37855;53.204;6.568;2023-05-08T09:47:56;16.25;;;11.57;;
51800;SDS011;37855;53.204;6.568;2023-05-08T09:50:22;16.00;;;10.95;;
51800;SDS011;37855;53.204;6.568;2023-05-08T09:52:49;15.07;;;10.85;;
51800;SDS011;37855;53.204;6.568;2023-05-08T09:55:15;20.17;;;11.77;;
51800;SDS011;37855;53.204;6.568;2023-05-08T09:57:57;13.80;;;11.23;;
51800;SDS011;37855;53.204;6.568;2023-05-08T10:00:24;14.15;;;11.82;;
51800;SDS011;37855;53.204;6.568;2023-05-08T10:02:57;20.07;;;12.20;;
51800;SDS011;37855;53.204;6.568;2023-05-08T10:05:32;14.07;;;11.35;;
51800;SDS011;37855;53.204;6.568;2023-05-08T10:08:19;18.50;;;11.07;;
51800;SDS011;37855;53.204;6.568;2023-05-08T10:10:50;15.23;;;11.35;;
51800;SDS011;37855;53.204;6.568;2023-05-08T10:13:17;17.25;;;12.20;;
51800;SDS011;37855;53.204;6.568;2023-05-08T10:15:43;17.07;;;12.30;;
51800;SDS011;37855;53.204;6.568;2023-05-08T10:18:09;26.27;;;12.93;;
51800;SDS011;37855;53.204;6.568;2023-05-08T10:20:42;18.50;;;12.10;;
51800;SDS011;37855;53.204;6.568;2023-05-08T10:23:13;18.73;;;12.05;;
51800;SDS011;37855;53.204;6.568;2023-05-08T10:25:42;18.10;;;13.10;;
51800;SDS011;37855;53.204;6.568;2023-05-08T10:28:31;15.27;;;12.75;;
51800;SDS011;37855;53.204;6.568;2023-05-08T10:31:10;17.10;;;12.18;;
51800;SDS011;37855;53.204;6.568;2023-05-08T10:33:41;21.73;;;13.63;;
51800;SDS011;37855;53.204;6.568;2023-05-08T10:36:10;19.88;;;12.88;;
51800;SDS011;37855;53.204;6.568;2023-05-08T10:38:37;18.73;;;13.23;;
51800;SDS011;37855;53.204;6.568;2023-05-08T10:41:05;19.10;;;13.23;;
51800;SDS011;37855;53.204;6.568;2023-05-08T10:43:32;15.95;;;12.45;;
51800;SDS011;37855;53.204;6.568;2023-05-08T10:46:00;22.00;;;12.80;;
51800;SDS011;37855;53.204;6.568;2023-05-08T10:48:44;18.08;;;12.63;;
51800;SDS011;37855;53.204;6.568;2023-05-08T10:54:10;23.30;;;13.65;;
51800;SDS011;37855;53.204;6.568;2023-05-08T10:56:50;20.52;;;13.00;;
51800;SDS011;37855;53.204;6.568;2023-05-08T10:59:16;19.93;;;14.97;;
51800;SDS011;37855;53.204;6.568;2023-05-08T11:01:46;20.95;;;14.32;;
51800;SDS011;37855;53.204;6.568;2023-05-08T11:04:19;35.80;;;15.45;;
51800;SDS011;37855;53.204;6.568;2023-05-08T11:06:47;20.83;;;14.65;;
51800;SDS011;37855;53.204;6.568;2023-05-08T11:09:21;19.30;;;13.23;;
51800;SDS011;37855;53.204;6.568;2023-05-08T11:14:40;25.40;;;15.10;;
51800;SDS011;37855;53.204;6.568;2023-05-08T11:17:07;20.75;;;15.45;;
51800;SDS011;37855;53.204;6.568;2023-05-08T11:19:34;26.65;;;15.05;;
51800;SDS011;37855;53.204;6.568;2023-05-08T11:22:42;26.08;;;14.90;;
51800;SDS011;37855;53.204;6.568;2023-05-08T11:24:57;18.93;;;15.13;;
51800;SDS011;37855;53.204;6.568;2023-05-08T11:30:22;21.40;;;15.63;;
51800;SDS011;37855;53.204;6.568;2023-05-08T11:35:44;23.38;;;15.50;;
51800;SDS011;37855;53.204;6.568;2023-05-08T11:41:03;21.65;;;15.00;;
51800;SDS011;37855;53.204;6.568;2023-05-08T11:46:14;21.95;;;16.63;;
51800;SDS011;37855;53.204;6.568;2023-05-08T11:48:41;22.45;;;17.17;;
51800;SDS011;37855;53.204;6.568;2023-05-08T11:51:08;25.77;;;16.17;;
51800;SDS011;37855;53.204;6.568;2023-05-08T11:53:34;21.88;;;13.88;;
51800;SDS011;37855;53.204;6.568;2023-05-08T11:56:01;24.45;;;14.77;;
51800;SDS011;37855;53.204;6.568;2023-05-08T11:58:27;19.58;;;15.10;;
51800;SDS011;37855;53.204;6.568;2023-05-08T12:00:53;19.45;;;15.68;;
51800;SDS011;37855;53.204;6.568;2023-05-08T12:03:20;19.63;;;16.13;;
51800;SDS011;37855;53.204;6.568;2023-05-08T12:05:48;38.55;;;15.68;;
51800;SDS011;37855;53.204;6.568;2023-05-08T12:08:15;25.98;;;14.82;;
51800;SDS011;37855;53.204;6.568;2023-05-08T12:13:26;21.80;;;17.10;;
51800;SDS011;37855;53.204;6.568;2023-05-08T12:15:56;18.70;;;14.47;;
51800;SDS011;37855;53.204;6.568;2023-05-08T12:18:24;23.75;;;16.15;;
51800;SDS011;37855;53.204;6.568;2023-05-08T12:20:51;20.35;;;15.35;;
51800;SDS011;37855;53.204;6.568;2023-05-08T12:23:20;15.75;;;11.63;;
51800;SDS011;37855;53.204;6.568;2023-05-08T12:25:47;24.35;;;13.70;;
51800;SDS011;37855;53.204;6.568;2023-05-08T12:28:17;21.03;;;16.47;;
51800;SDS011;37855;53.204;6.568;2023-05-08T12:30:43;21.02;;;13.75;;
51800;SDS011;37855;53.204;6.568;2023-05-08T12:33:10;21.48;;;14.27;;
51800;SDS011;37855;53.204;6.568;2023-05-08T12:35:38;20.63;;;14.33;;
51800;SDS011;37855;53.204;6.568;2023-05-08T12:38:05;21.33;;;13.65;;
51800;SDS011;37855;53.204;6.568;2023-05-08T12:40:33;19.83;;;14.23;;
51800;SDS011;37855;53.204;6.568;2023-05-08T12:43:00;23.58;;;14.93;;
51800;SDS011;37855;53.204;6.568;2023-05-08T12:45:27;23.05;;;14.85;;
51800;SDS011;37855;53.204;6.568;2023-05-08T12:48:13;20.27;;;15.93;;
51800;SDS011;37855;53.204;6.568;2023-05-08T12:50:45;25.30;;;15.73;;
51800;SDS011;37855;53.204;6.568;2023-05-08T12:53:18;22.10;;;13.65;;
51800;SDS011;37855;53.204;6.568;2023-05-08T12:55:51;23.63;;;15.05;;
51800;SDS011;37855;53.204;6.568;2023-05-08T12:58:23;23.20;;;14.98;;
51800;SDS011;37855;53.204;6.568;2023-05-08T13:00:50;20.60;;;15.00;;
51800;SDS011;37855;53.204;6.568;2023-05-08T13:03:21;22.25;;;15.70;;
51800;SDS011;37855;53.204;6.568;2023-05-08T13:05:51;35.17;;;15.88;;
51800;SDS011;37855;53.204;6.568;2023-05-08T13:08:54;21.77;;;13.50;;
51800;SDS011;37855;53.204;6.568;2023-05-08T13:11:26;21.02;;;15.18;;
51800;SDS011;37855;53.204;6.568;2023-05-08T13:13:58;24.00;;;15.53;;
51800;SDS011;37855;53.204;6.568;2023-05-08T13:16:24;19.83;;;14.35;;
51800;SDS011;37855;53.204;6.568;2023-05-08T13:18:50;21.55;;;14.95;;
51800;SDS011;37855;53.204;6.568;2023-05-08T13:21:16;23.63;;;14.30;;
51800;SDS011;37855;53.204;6.568;2023-05-08T13:23:41;21.58;;;13.52;;
51800;SDS011;37855;53.204;6.568;2023-05-08T13:26:07;18.37;;;13.07;;
51800;SDS011;37855;53.204;6.568;2023-05-08T13:28:33;19.27;;;13.13;;
51800;SDS011;37855;53.204;6.568;2023-05-08T13:30:58;19.90;;;12.57;;
51800;SDS011;37855;53.204;6.568;2023-05-08T13:33:24;18.67;;;13.77;;
51800;SDS011;37855;53.204;6.568;2023-05-08T13:35:50;24.53;;;14.60;;
51800;SDS011;37855;53.204;6.568;2023-05-08T13:38:16;19.67;;;14.73;;
51800;SDS011;37855;53.204;6.568;2023-05-08T13:40:41;21.60;;;13.30;;
51800;SDS011;37855;53.204;6.568;2023-05-08T13:43:07;23.87;;;12.53;;
51800;SDS011;37855;53.204;6.568;2023-05-08T13:45:33;18.50;;;12.63;;
51800;SDS011;37855;53.204;6.568;2023-05-08T13:48:01;17.58;;;13.45;;
51800;SDS011;37855;53.204;6.568;2023-05-08T13:50:30;16.58;;;12.18;;
51800;SDS011;37855;53.204;6.568;2023-05-08T13:52:57;16.57;;;11.63;;
51800;SDS011;37855;53.204;6.568;2023-05-08T13:55:26;19.70;;;11.52;;
51800;SDS011;37855;53.204;6.568;2023-05-08T13:57:52;18.08;;;11.48;;
51800;SDS011;37855;53.204;6.568;2023-05-08T14:00:19;18.27;;;11.73;;
51800;SDS011;37855;53.204;6.568;2023-05-08T14:02:44;17.57;;;11.00;;
51800;SDS011;37855;53.204;6.568;2023-05-08T14:05:13;19.83;;;10.30;;
51800;SDS011;37855;53.204;6.568;2023-05-08T14:07:39;15.63;;;12.25;;
51800;SDS011;37855;53.204;6.568;2023-05-08T14:10:05;17.30;;;11.60;;
51800;SDS011;37855;53.204;6.568;2023-05-08T14:12:31;13.55;;;10.45;;
51800;SDS011;37855;53.204;6.568;2023-05-08T14:15:00;17.98;;;10.38;;
51800;SDS011;37855;53.204;6.568;2023-05-08T14:17:26;12.50;;;9.20;;
51800;SDS011;37855;53.204;6.568;2023-05-08T14:19:53;14.18;;;9.45;;
51800;SDS011;37855;53.204;6.568;2023-05-08T14:22:19;14.77;;;8.67;;
51800;SDS011;37855;53.204;6.568;2023-05-08T14:24:47;11.20;;;7.78;;
51800;SDS011;37855;53.204;6.568;2023-05-08T14:27:13;11.98;;;8.63;;
51800;SDS011;37855;53.204;6.568;2023-05-08T14:29:40;14.50;;;9.17;;
51800;SDS011;37855;53.204;6.568;2023-05-08T14:32:09;14.48;;;8.02;;
51800;SDS011;37855;53.204;6.568;2023-05-08T14:34:36;11.73;;;7.93;;
51800;SDS011;37855;53.204;6.568;2023-05-08T14:37:01;13.57;;;8.43;;
51800;SDS011;37855;53.204;6.568;2023-05-08T14:39:28;12.47;;;7.87;;
51800;SDS011;37855;53.204;6.568;2023-05-08T14:41:59;14.65;;;8.32;;
51800;SDS011;37855;53.204;6.568;2023-05-08T14:44:25;12.90;;;8.18;;
51800;SDS011;37855;53.204;6.568;2023-05-08T14:46:51;11.63;;;8.43;;
51800;SDS011;37855;53.204;6.568;2023-05-08T14:49:17;14.00;;;8.43;;
51800;SDS011;37855;53.204;6.568;2023-05-08T14:51:43;12.70;;;7.90;;
51800;SDS011;37855;53.204;6.568;2023-05-08T14:54:11;12.30;;;7.95;;
51800;SDS011;37855;53.204;6.568;2023-05-08T14:56:39;12.48;;;7.93;;
51800;SDS011;37855;53.204;6.568;2023-05-08T14:59:04;13.17;;;7.70;;
51800;SDS011;37855;53.204;6.568;2023-05-08T15:01:30;10.90;;;7.47;;
51800;SDS011;37855;53.204;6.568;2023-05-08T15:03:56;11.27;;;7.88;;
51800;SDS011;37855;53.204;6.568;2023-05-08T15:06:22;11.37;;;8.27;;
51800;SDS011;37855;53.204;6.568;2023-05-08T15:08:49;11.55;;;8.57;;
51800;SDS011;37855;53.204;6.568;2023-05-08T15:11:24;14.30;;;8.32;;
51800;SDS011;37855;53.204;6.568;2023-05-08T15:13:50;11.52;;;8.57;;
51800;SDS011;37855;53.204;6.568;2023-05-08T15:16:18;12.93;;;8.10;;
51800;SDS011;37855;53.204;6.568;2023-05-08T15:18:44;11.93;;;7.68;;
51800;SDS011;37855;53.204;6.568;2023-05-08T15:21:10;16.63;;;7.73;;
51800;SDS011;37855;53.204;6.568;2023-05-08T15:23:36;10.97;;;8.00;;
51800;SDS011;37855;53.204;6.568;2023-05-08T15:26:01;11.53;;;7.40;;
51800;SDS011;37855;53.204;6.568;2023-05-08T15:28:28;12.13;;;8.05;;
51800;SDS011;37855;53.204;6.568;2023-05-08T15:30:54;11.88;;;7.22;;